createdAt,value
2019-01-20T00:02:23.013Z,-3.40
2019-01-20T00:09:53.615Z,-3.40
2019-01-20T00:14:56.861Z,-3.40
2019-01-20T00:17:30.780Z,-2.70
2019-01-20T00:20:00.868Z,-3.50
2019-01-20T00:22:32.219Z,-3.60
2019-01-20T00:25:01.961Z,-3.50
2019-01-20T00:27:35.535Z,-3.60
2019-01-20T00:32:38.215Z,-3.60
2019-01-20T00:35:08.720Z,-3.60
2019-01-20T00:37:41.167Z,-3.60
2019-01-20T00:40:12.343Z,-3.70
2019-01-20T00:42:45.580Z,-3.70
2019-01-20T00:45:16.565Z,-3.80
2019-01-20T00:47:47.086Z,-3.80
2019-01-20T00:50:16.993Z,-3.90
2019-01-20T00:52:49.892Z,-3.90
2019-01-20T00:55:19.949Z,-3.80
2019-01-20T00:57:53.520Z,-3.80
2019-01-20T01:00:31.860Z,-3.90
2019-01-20T01:03:01.885Z,-4.70
2019-01-20T01:05:31.587Z,-3.90
2019-01-20T01:08:01.299Z,-3.90
2019-01-20T01:10:31.340Z,-3.90
2019-01-20T01:13:04.666Z,-2.70
2019-01-20T01:15:34.527Z,-4.00
2019-01-20T01:18:05.795Z,-4.00
2019-01-20T01:20:35.519Z,-4.00
2019-01-20T01:25:37.748Z,-4.00
2019-01-20T01:28:12.240Z,-4.00
2019-01-20T01:30:41.957Z,-4.00
2019-01-20T01:33:14.867Z,-4.00
2019-01-20T01:35:44.611Z,-4.00
2019-01-20T01:38:18.458Z,-4.10
2019-01-20T01:40:48.187Z,-4.10
2019-01-20T01:43:20.512Z,-4.00
2019-01-20T01:45:50.688Z,-4.10
2019-01-20T01:48:23.163Z,-4.10
2019-01-20T01:53:24.955Z,-4.20
2019-01-20T01:55:54.629Z,-4.20
2019-01-20T01:58:27.150Z,-4.20
2019-01-20T02:00:56.852Z,-4.20
2019-01-20T02:05:58.734Z,-4.20
2019-01-20T02:08:33.934Z,-4.20
2019-01-20T02:11:03.678Z,-4.10
2019-01-20T02:16:03.383Z,-4.20
2019-01-20T02:18:40.853Z,-4.20
2019-01-20T02:21:10.886Z,-4.30
2019-01-20T02:23:40.641Z,-4.30
2019-01-20T02:26:10.480Z,-4.20
2019-01-20T02:28:43.699Z,-4.20
2019-01-20T02:31:13.397Z,-4.20
2019-01-20T02:33:46.671Z,-4.30
2019-01-20T02:36:16.823Z,-4.30
2019-01-20T02:38:50.473Z,-4.20
2019-01-20T02:41:20.196Z,-4.20
2019-01-20T02:46:21.711Z,-4.20
2019-01-20T02:48:56.002Z,-4.20
2019-01-20T02:51:25.739Z,-4.20
2019-01-20T02:56:27.094Z,-4.20
2019-01-20T03:04:05.406Z,-4.30
2019-01-20T03:09:10.023Z,-4.40
2019-01-20T03:11:39.842Z,-4.40
2019-01-20T03:14:12.744Z,-4.50
2019-01-20T03:16:42.959Z,-4.40
2019-01-20T03:19:15.537Z,-4.40
2019-01-20T03:24:17.496Z,-4.50
2019-01-20T03:26:47.188Z,-4.50
2019-01-20T03:29:20.094Z,-4.50
2019-01-20T03:31:50.325Z,-4.50
2019-01-20T03:34:22.819Z,-4.50
2019-01-20T03:36:52.510Z,-4.50
2019-01-20T03:46:55.756Z,-4.50
2019-01-20T03:52:00.629Z,-4.60
2019-01-20T03:54:32.610Z,-4.60
2019-01-20T04:04:37.910Z,-4.70
2019-01-20T04:09:43.694Z,-4.80
2019-01-20T04:12:20.474Z,-4.70
2019-01-20T04:17:14.143Z,-4.70
2019-01-20T04:19:46.956Z,-4.80
2019-01-20T04:22:17.684Z,-4.80
2019-01-20T04:24:50.018Z,-4.80
2019-01-20T04:27:19.718Z,-6.00
2019-01-20T04:29:51.859Z,-4.90
2019-01-20T04:32:21.987Z,-4.80
2019-01-20T04:37:24.151Z,-4.80
2019-01-20T04:39:59.771Z,-4.90
2019-01-20T04:42:29.636Z,-4.90
2019-01-20T04:45:02.579Z,-4.90
2019-01-20T04:50:07.331Z,-4.90
2019-01-20T04:55:10.192Z,-5.00
2019-01-20T04:57:40.517Z,-5.00
2019-01-20T05:00:16.433Z,-5.10
2019-01-20T05:02:46.379Z,-5.10
2019-01-20T05:05:17.283Z,-5.40
2019-01-20T05:07:47.039Z,-5.10
2019-01-20T05:10:17.395Z,-5.10
2019-01-20T05:12:47.073Z,-5.10
2019-01-20T05:15:21.861Z,-5.10
2019-01-20T05:20:22.715Z,-6.40
2019-01-20T05:22:52.418Z,-5.20
2019-01-20T05:25:26.349Z,-5.20
2019-01-20T05:30:27.333Z,-5.20
2019-01-20T05:32:57.300Z,-5.30
2019-01-20T05:35:29.989Z,-5.20
2019-01-20T05:37:59.682Z,-5.30
2019-01-20T05:43:01.387Z,-5.30
2019-01-20T05:45:35.744Z,-5.30
2019-01-20T05:48:05.846Z,-5.30
2019-01-20T05:53:06.702Z,-5.30
2019-01-20T05:58:08.863Z,-5.30
2019-01-20T06:00:43.413Z,-5.30
2019-01-20T06:03:13.365Z,-5.40
2019-01-20T06:10:53.416Z,-5.30
2019-01-20T06:13:23.214Z,-5.40
2019-01-20T06:15:52.944Z,-5.40
2019-01-20T06:18:22.619Z,-5.40
2019-01-20T06:23:24.111Z,-5.40
2019-01-20T06:25:59.174Z,-5.40
2019-01-20T06:28:29.234Z,-5.40
2019-01-20T06:33:29.584Z,-5.30
2019-01-20T06:41:08.632Z,-5.40
2019-01-20T06:43:38.760Z,-5.40
2019-01-20T06:46:13.655Z,-6.40
2019-01-20T06:48:43.390Z,-5.40
2019-01-20T06:51:16.541Z,-4.20
2019-01-20T06:56:18.924Z,-5.40
2019-01-20T07:01:19.685Z,-5.40
2019-01-20T07:03:49.759Z,-5.40
2019-01-20T07:08:51.703Z,-5.50
2019-01-20T07:11:25.150Z,-5.50
2019-01-20T07:13:54.879Z,-6.10
2019-01-20T07:16:28.778Z,-5.50
2019-01-20T07:21:30.866Z,-4.80
2019-01-20T07:24:00.563Z,-5.50
2019-01-20T07:29:02.153Z,-5.60
2019-01-20T07:31:35.087Z,-4.20
2019-01-20T07:34:04.770Z,-5.50
2019-01-20T07:36:38.560Z,-5.40
2019-01-20T07:39:08.810Z,-5.30
2019-01-20T07:41:41.547Z,-5.30
2019-01-20T07:46:43.575Z,-4.30
2019-01-20T07:49:13.623Z,-5.30
2019-01-20T07:51:47.889Z,-5.30
2019-01-20T07:54:17.642Z,-5.30
2019-01-20T08:01:51.156Z,-5.20
2019-01-20T08:04:20.964Z,-5.20
2019-01-20T08:09:25.062Z,-4.50
2019-01-20T08:17:01.918Z,-4.60
2019-01-20T08:19:31.664Z,-4.70
2019-01-20T08:22:06.991Z,-4.70
2019-01-20T08:24:36.679Z,-4.70
2019-01-20T08:27:09.837Z,-4.80
2019-01-20T08:29:39.593Z,-4.80
2019-01-20T08:32:12.055Z,-4.70
2019-01-20T08:34:42.156Z,-4.70
2019-01-20T08:37:15.040Z,-5.30
2019-01-20T08:39:44.730Z,-4.70
2019-01-20T08:42:19.115Z,-4.60
2019-01-20T08:44:48.801Z,-4.60
2019-01-20T08:47:40.436Z,-4.40
2019-01-20T08:50:27.176Z,-4.40
2019-01-20T08:52:56.907Z,-4.40
2019-01-20T08:55:26.946Z,-4.40
2019-01-20T08:57:56.626Z,-4.30
2019-01-20T09:00:28.812Z,-4.30
2019-01-20T09:07:58.439Z,-4.30
2019-01-20T09:10:32.864Z,-4.10
2019-01-20T09:13:04.776Z,-4.10
2019-01-20T09:15:34.723Z,-4.10
2019-01-20T09:18:04.634Z,-4.00
2019-01-20T09:20:36.388Z,-5.20
2019-01-20T09:28:11.327Z,-3.80
2019-01-20T09:30:44.607Z,-3.70
2019-01-20T09:33:14.471Z,-3.60
2019-01-20T09:35:46.045Z,-3.50
2019-01-20T09:38:17.848Z,-3.50
2019-01-20T09:40:48.851Z,-3.40
2019-01-20T09:43:18.917Z,-3.40
2019-01-20T09:45:52.377Z,-3.40
2019-01-20T09:48:22.172Z,-3.30
2019-01-20T09:53:24.195Z,-3.20
2019-01-20T09:55:59.037Z,-3.00
2019-01-20T10:01:02.888Z,-3.00
2019-01-20T10:03:33.019Z,-2.90
2019-01-20T10:06:05.668Z,-2.80
2019-01-20T10:08:35.396Z,-1.50
2019-01-20T10:11:08.170Z,-2.70
2019-01-20T10:13:37.953Z,-2.70
2019-01-20T10:16:12.128Z,-2.70
2019-01-20T10:18:41.844Z,-2.70
2019-01-20T10:21:15.332Z,-2.60
2019-01-20T10:23:45.464Z,-2.50
2019-01-20T10:26:16.328Z,-2.50
2019-01-20T10:28:45.987Z,-2.40
2019-01-20T10:31:19.525Z,-3.50
2019-01-20T10:33:49.242Z,-2.50
2019-01-20T10:36:22.040Z,-2.40
2019-01-20T10:38:52.103Z,-2.20
2019-01-20T10:41:24.591Z,-3.40
2019-01-20T10:43:54.361Z,-2.30
2019-01-20T10:48:57.944Z,-2.20
2019-01-20T10:51:31.303Z,-2.20
2019-01-20T10:54:01.073Z,-2.20
2019-01-20T10:56:31.965Z,-2.00
2019-01-20T10:59:01.958Z,-2.00
2019-01-20T11:04:03.167Z,-1.80
2019-01-20T11:06:36.180Z,-1.80
2019-01-20T11:09:07.485Z,-0.50
2019-01-20T11:11:40.092Z,-1.60
2019-01-20T11:14:09.865Z,-1.50
2019-01-20T11:16:42.642Z,-1.60
2019-01-20T11:21:44.867Z,-1.50
2019-01-20T11:24:14.564Z,-1.50
2019-01-20T11:26:47.719Z,-1.40
2019-01-20T11:29:17.532Z,-0.50
2019-01-20T11:34:23.769Z,-1.20
2019-01-20T11:39:23.597Z,-1.30
2019-01-20T11:44:28.426Z,-1.40
2019-01-20T11:47:02.486Z,-1.10
2019-01-20T11:52:07.926Z,-1.00
2019-01-20T11:54:40.336Z,-0.90
2019-01-20T11:57:10.903Z,-0.80
2019-01-20T11:59:42.034Z,-0.80
2019-01-20T12:02:11.949Z,-0.80
2019-01-20T12:04:41.869Z,-0.70
2019-01-20T12:07:16.456Z,-0.80
2019-01-20T12:09:47.239Z,-0.70
2019-01-20T12:14:50.688Z,-0.60
2019-01-20T12:17:21.876Z,-0.50
2019-01-20T12:27:25.481Z,0.70
2019-01-20T12:32:28.517Z,-0.50
2019-01-20T12:34:58.202Z,-0.50
2019-01-20T12:37:29.392Z,-0.50
2019-01-20T12:39:59.980Z,-0.30
2019-01-20T12:44:59.820Z,-0.30
2019-01-20T12:47:33.783Z,-0.30
2019-01-20T12:52:37.389Z,-0.40
2019-01-20T13:00:09.648Z,-0.20
2019-01-20T13:02:42.353Z,-0.10
2019-01-20T13:05:12.263Z,-0.10
2019-01-20T13:07:45.441Z,-0.10
2019-01-20T13:10:16.680Z,-0.10
2019-01-20T13:12:47.908Z,-0.10
2019-01-20T13:15:19.832Z,-0.10
2019-01-20T13:17:52.513Z,-0.80
2019-01-20T13:20:24.139Z,-0.10
2019-01-20T13:22:56.765Z,-0.20
2019-01-20T13:25:28.293Z,-0.10
2019-01-20T13:27:58.040Z,0.00
2019-01-20T13:30:29.087Z,0.00
2019-01-20T13:33:01.187Z,0.00
2019-01-20T13:43:15.575Z,-0.10
2019-01-20T13:48:14.716Z,-0.10
2019-01-20T13:50:44.424Z,-0.10
2019-01-20T13:55:43.685Z,0.90
2019-01-20T14:00:49.776Z,-0.20
2019-01-20T14:03:20.983Z,-0.10
2019-01-20T14:05:52.178Z,-0.10
2019-01-20T14:08:22.344Z,-0.10
2019-01-20T14:10:52.023Z,-0.10
2019-01-20T14:18:26.750Z,-0.10
2019-01-20T14:20:56.504Z,-0.10
2019-01-20T14:25:58.244Z,-0.20
2019-01-20T14:31:00.125Z,-0.30
2019-01-20T14:33:34.335Z,-0.30
2019-01-20T14:36:04.194Z,-0.20
2019-01-20T14:38:37.239Z,-0.20
2019-01-20T14:41:06.955Z,-0.20
2019-01-20T14:43:39.601Z,-0.30
2019-01-20T14:46:09.822Z,0.70
2019-01-20T14:48:43.665Z,-1.30
2019-01-20T14:51:13.605Z,-0.40
2019-01-20T14:53:46.765Z,-0.30
2019-01-20T14:56:16.855Z,-0.30
2019-01-20T14:58:50.477Z,-0.40
2019-01-20T15:01:20.503Z,-0.40
2019-01-20T15:03:53.174Z,-0.70
2019-01-20T15:08:56.885Z,-0.40
2019-01-20T15:11:26.866Z,0.70
2019-01-20T15:13:58.901Z,-0.40
2019-01-20T15:16:28.623Z,0.60
2019-01-20T15:19:01.814Z,-0.60
2019-01-20T15:21:31.622Z,-0.50
2019-01-20T15:24:04.292Z,-0.50
2019-01-20T15:26:34.269Z,-0.50
2019-01-20T15:29:08.794Z,-1.30
2019-01-20T15:31:38.487Z,-0.60
2019-01-20T15:34:12.052Z,-0.60
2019-01-20T15:36:41.780Z,-0.60
2019-01-20T15:39:14.067Z,-0.60
2019-01-20T15:41:44.410Z,-0.70
2019-01-20T15:44:17.493Z,-0.70
2019-01-20T15:46:47.232Z,0.30
2019-01-20T15:49:20.370Z,-0.70
2019-01-20T15:51:50.215Z,-0.70
2019-01-20T15:54:22.020Z,-0.80
2019-01-20T15:56:52.027Z,-0.90
2019-01-20T15:59:24.660Z,-0.40
2019-01-20T16:01:54.415Z,-1.00
2019-01-20T16:04:26.479Z,-1.00
2019-01-20T16:06:57.023Z,-1.10
2019-01-20T16:09:29.530Z,-1.10
2019-01-20T16:17:00.512Z,-1.30
2019-01-20T16:19:34.699Z,-1.40
2019-01-20T16:22:04.548Z,-1.50
2019-01-20T16:24:36.558Z,-1.60
2019-01-20T16:27:06.607Z,-1.80
2019-01-20T16:29:43.053Z,-1.70
2019-01-20T16:32:13.086Z,-1.80
2019-01-20T16:34:42.860Z,-1.80
2019-01-20T16:37:12.736Z,-1.80
2019-01-20T16:39:46.822Z,-1.90
2019-01-20T16:42:16.519Z,-1.60
2019-01-20T16:44:49.993Z,-2.10
2019-01-20T16:47:20.411Z,-2.10
2019-01-20T16:49:52.520Z,-2.10
2019-01-20T16:52:22.313Z,-2.20
2019-01-20T16:54:55.678Z,-2.30
2019-01-20T16:57:25.404Z,-2.70
2019-01-20T16:59:59.212Z,-2.40
2019-01-20T17:02:33.495Z,-2.40
2019-01-20T17:07:38.199Z,-2.40
2019-01-20T17:10:15.333Z,-2.50
2019-01-20T17:12:45.080Z,-2.50
2019-01-20T17:15:18.585Z,-2.60
2019-01-20T17:17:48.455Z,-2.50
2019-01-20T17:22:49.410Z,-2.40
2019-01-20T17:25:19.648Z,-2.70
2019-01-20T17:27:49.501Z,-2.70
2019-01-20T17:30:21.811Z,-2.10
2019-01-20T17:35:20.877Z,-1.80
2019-01-20T17:37:50.847Z,-2.80
2019-01-20T17:40:24.822Z,-2.80
2019-01-20T17:42:54.631Z,-2.90
2019-01-20T17:45:27.862Z,-2.90
2019-01-20T17:47:57.821Z,-2.90
2019-01-20T17:50:29.944Z,-2.70
2019-01-20T17:52:59.860Z,-2.90
2019-01-20T17:55:32.371Z,-2.90
2019-01-20T17:58:02.072Z,-3.00
2019-01-20T18:00:38.014Z,-3.00
2019-01-20T18:03:08.220Z,-3.00
2019-01-20T18:05:38.246Z,-3.00
2019-01-20T18:08:08.157Z,-3.10
2019-01-20T18:10:38.266Z,-3.00
2019-01-20T18:13:08.163Z,-3.00
2019-01-20T18:18:09.988Z,-3.00
2019-01-20T18:20:45.522Z,-3.00
2019-01-20T18:23:15.220Z,-3.10
2019-01-20T18:25:48.761Z,-3.10
2019-01-20T18:28:18.572Z,-3.20
2019-01-20T18:33:21.052Z,-3.20
2019-01-20T18:35:54.514Z,-3.20
2019-01-20T18:38:24.703Z,-3.20
2019-01-20T18:43:26.238Z,-3.30
2019-01-20T18:46:01.808Z,-3.30
2019-01-20T18:51:05.534Z,-3.30
2019-01-20T18:56:07.448Z,-2.60
2019-01-20T19:01:13.911Z,-3.30
2019-01-20T19:06:14.486Z,-2.20
2019-01-20T19:08:44.215Z,-3.30
2019-01-20T19:11:18.726Z,-3.30
2019-01-20T19:13:48.483Z,-3.20
2019-01-20T19:16:18.633Z,-3.20
2019-01-20T19:18:48.729Z,-3.20
2019-01-20T19:21:21.608Z,-2.20
2019-01-20T19:23:51.304Z,-3.30
2019-01-20T19:26:23.608Z,-3.30
2019-01-20T19:28:54.284Z,-3.50
2019-01-20T19:41:29.533Z,-3.50
2019-01-20T19:43:59.268Z,-3.50
2019-01-20T19:46:35.603Z,-4.80
2019-01-20T19:49:05.442Z,-3.50
2019-01-20T19:51:36.558Z,-3.60
2019-01-20T19:54:06.608Z,-3.60
2019-01-20T19:56:39.316Z,-3.60
2019-01-20T19:59:09.039Z,-3.60
2019-01-20T20:01:42.456Z,-3.60
2019-01-20T20:06:45.687Z,-3.60
2019-01-20T20:09:15.528Z,-3.60
2019-01-20T20:16:55.469Z,-3.60
2019-01-20T20:19:25.512Z,-3.50
2019-01-20T20:21:55.227Z,-2.70
2019-01-20T20:24:25.606Z,-3.50
2019-01-20T20:26:58.624Z,-3.60
2019-01-20T20:29:28.324Z,-3.50
2019-01-20T20:32:00.977Z,-3.50
2019-01-20T20:37:04.177Z,-3.50
2019-01-20T20:39:33.904Z,-3.60
2019-01-20T20:44:36.283Z,-3.80
2019-01-20T20:49:42.608Z,-3.70
2019-01-20T20:52:15.374Z,-3.60
2019-01-20T20:54:45.102Z,-3.70
2019-01-20T20:57:16.686Z,-3.60
2019-01-20T20:59:46.411Z,-3.70
2019-01-20T21:02:20.880Z,-3.70
2019-01-20T21:07:22.279Z,-4.80
2019-01-20T21:09:56.554Z,-3.70
2019-01-20T21:17:28.462Z,-3.80
2019-01-20T21:22:31.088Z,-3.90
2019-01-20T21:25:00.806Z,-3.40
2019-01-20T21:27:31.673Z,-3.80
2019-01-20T21:32:33.792Z,-3.80
2019-01-20T21:35:04.179Z,-3.90
2019-01-20T21:37:37.307Z,-3.90
2019-01-20T21:42:38.163Z,-4.20
2019-01-20T21:47:45.379Z,-4.30
2019-01-20T21:50:27.407Z,-4.50
2019-01-20T21:52:57.235Z,-4.50
2019-01-20T21:57:56.445Z,-4.50
2019-01-20T22:00:27.645Z,-4.50
2019-01-20T22:05:26.857Z,-4.40
2019-01-20T22:07:56.561Z,-4.40
2019-01-20T22:10:27.253Z,-4.30
2019-01-20T22:15:26.547Z,-4.60
2019-01-20T22:20:33.333Z,-4.50
2019-01-20T22:25:32.596Z,-4.40
2019-01-20T22:33:11.297Z,-4.50
2019-01-20T22:35:41.252Z,-4.50
2019-01-20T22:38:13.933Z,-4.20
2019-01-20T22:43:16.259Z,-4.50
2019-01-20T22:48:20.373Z,-4.60
2019-01-20T22:50:50.065Z,-4.60
2019-01-20T22:53:22.327Z,-5.40
2019-01-20T22:55:52.352Z,-4.60
2019-01-20T22:58:24.836Z,-4.60
2019-01-20T23:06:00.712Z,-4.70
2019-01-20T23:08:30.533Z,-3.80
2019-01-20T23:11:00.547Z,-4.60
2019-01-20T23:13:31.853Z,-4.20
2019-01-20T23:16:01.560Z,-4.80
2019-01-20T23:21:03.646Z,-4.50
2019-01-20T23:23:36.604Z,-4.90
2019-01-20T23:26:06.567Z,-5.00
2019-01-20T23:28:39.149Z,-5.10
2019-01-20T23:31:08.836Z,-5.00
2019-01-20T23:33:42.414Z,-4.60
2019-01-20T23:36:12.317Z,-5.10
2019-01-20T23:43:49.022Z,-5.10
2019-01-20T23:46:18.940Z,-5.00
2019-01-20T23:51:21.207Z,-5.10
2019-01-20T23:53:56.988Z,-5.10
